createdAt,value
2022-11-19T00:02:43.475Z,99013.63
2022-11-19T00:05:31.925Z,99020.47
2022-11-19T00:08:20.860Z,99006.72
2022-11-19T00:11:11.080Z,99010.16
2022-11-19T00:13:58.491Z,99010.97
2022-11-19T00:16:48.188Z,99013.47
2022-11-19T00:19:36.592Z,99010.16
2022-11-19T00:22:25.068Z,99009.56
2022-11-19T00:25:13.443Z,99011.25
2022-11-19T00:28:01.835Z,99010.69
2022-11-19T00:30:50.243Z,98999.03
2022-11-19T00:33:41.226Z,99010.25
2022-11-19T00:36:29.631Z,99001.69
2022-11-19T00:39:18.369Z,99002.59
2022-11-19T00:42:07.254Z,99002.53
2022-11-19T00:44:55.655Z,99000.69
2022-11-19T00:47:44.070Z,99000.69
2022-11-19T00:50:33.820Z,99007.69
2022-11-19T00:53:22.263Z,99006.19
2022-11-19T00:56:12.397Z,99001.97
2022-11-19T00:59:00.831Z,99004.34
2022-11-19T01:01:49.199Z,99015.47
2022-11-19T01:04:37.824Z,99012.09
2022-11-19T01:07:27.654Z,99015.41
2022-11-19T01:10:16.896Z,99010.34
2022-11-19T01:13:22.670Z,99017.41
2022-11-19T01:16:12.872Z,99025.28
2022-11-19T01:19:01.399Z,99030.63
2022-11-19T01:21:49.787Z,99027.13
2022-11-19T01:24:39.522Z,99023.66
2022-11-19T01:27:27.889Z,99028.88
2022-11-19T01:30:16.651Z,99020.31
2022-11-19T01:33:05.213Z,99024.72
2022-11-19T01:35:58.480Z,99027.31
2022-11-19T01:38:50.660Z,99022.22
2022-11-19T01:41:40.433Z,99028.31
2022-11-19T01:45:01.246Z,99025.03
2022-11-19T01:47:49.666Z,99020.81
2022-11-19T01:50:41.352Z,99018.31
2022-11-19T01:53:32.803Z,99025.97
2022-11-19T01:56:22.010Z,99023.41
2022-11-19T01:59:15.133Z,99017.31
2022-11-19T02:02:03.615Z,99018.16
2022-11-19T02:04:52.506Z,99026.72
2022-11-19T02:07:41.602Z,99029.13
2022-11-19T02:10:36.420Z,99019.66
2022-11-19T02:13:27.558Z,99023.97
2022-11-19T02:16:21.145Z,99021.41
2022-11-19T02:19:13.787Z,99028.19
2022-11-19T02:22:07.080Z,99029.13
2022-11-19T02:24:55.734Z,99023.22
2022-11-19T02:28:10.560Z,99028.38
2022-11-19T02:31:03.201Z,99030.06
2022-11-19T02:33:58.752Z,99026.63
2022-11-19T02:36:49.521Z,99023.97
2022-11-19T02:39:40.673Z,99026.47
2022-11-19T02:42:30.674Z,99020.41
2022-11-19T02:45:21.394Z,99020.47
2022-11-19T02:48:13.112Z,99014.50
2022-11-19T02:51:02.723Z,99020.31
2022-11-19T02:53:51.115Z,99026.28
2022-11-19T02:56:52.602Z,99022.91
2022-11-19T03:00:00.433Z,99028.06
2022-11-19T03:03:08.856Z,99028.94
2022-11-19T03:06:04.189Z,99031.53
2022-11-19T03:08:52.568Z,99029.81
2022-11-19T03:11:40.960Z,99035.78
2022-11-19T03:14:59.467Z,99035.59
2022-11-19T03:18:03.966Z,99030.63
2022-11-19T03:20:55.362Z,99034.84
2022-11-19T03:23:48.651Z,99039.09
2022-11-19T03:26:38.919Z,99045.91
2022-11-19T03:29:27.669Z,99045.00
2022-11-19T03:32:19.650Z,99045.81
2022-11-19T03:35:11.765Z,99047.59
2022-11-19T03:38:02.414Z,99042.56
2022-11-19T03:40:52.195Z,99045.97
2022-11-19T03:43:40.918Z,99045.97
2022-11-19T03:46:29.792Z,99042.69
2022-11-19T03:49:18.464Z,99044.41
2022-11-19T03:52:10.491Z,99045.31
2022-11-19T03:54:58.908Z,99051.38
2022-11-19T03:57:48.704Z,99046.22
2022-11-19T04:00:37.112Z,99053.06
2022-11-19T04:03:25.571Z,99047.91
2022-11-19T04:06:13.975Z,99056.53
2022-11-19T04:09:02.382Z,99048.72
2022-11-19T04:14:39.503Z,99053.06
2022-11-19T04:17:27.905Z,99065.88
2022-11-19T04:20:16.485Z,99059.03
2022-11-19T04:23:04.932Z,99064.34
2022-11-19T04:25:53.344Z,99064.44
2022-11-19T04:28:41.870Z,99061.28
2022-11-19T04:31:31.754Z,99058.19
2022-11-19T04:34:20.210Z,99066.06
2022-11-19T04:37:08.703Z,99064.50
2022-11-19T04:39:57.101Z,99060.28
2022-11-19T04:42:45.496Z,99073.16
2022-11-19T04:45:33.924Z,99069.81
2022-11-19T04:48:23.692Z,99075.97
2022-11-19T04:51:12.114Z,99061.50
2022-11-19T04:54:00.557Z,99079.53
2022-11-19T04:56:48.977Z,99079.78
2022-11-19T04:59:37.395Z,99073.19
2022-11-19T05:02:25.860Z,99072.38
2022-11-19T05:05:15.838Z,99075.78
2022-11-19T05:08:04.314Z,99075.53
2022-11-19T05:10:52.723Z,99072.44
2022-11-19T05:13:41.127Z,99075.25
2022-11-19T05:16:29.567Z,99078.22
2022-11-19T05:19:18.294Z,99076.88
2022-11-19T05:22:08.356Z,99079.50
2022-11-19T05:24:56.778Z,99087.22
2022-11-19T05:27:45.199Z,99086.25
2022-11-19T05:30:33.686Z,99085.28
2022-11-19T05:33:22.333Z,99090.94
2022-11-19T05:36:11.136Z,99094.84
2022-11-19T05:39:00.876Z,99098.63
2022-11-19T05:41:49.281Z,99103.28
2022-11-19T05:44:37.685Z,99101.91
2022-11-19T05:47:26.277Z,99098.56
2022-11-19T05:50:15.171Z,99110.66
2022-11-19T05:53:05.155Z,99115.78
2022-11-19T05:55:54.954Z,99111.41
2022-11-19T05:58:43.345Z,99111.13
2022-11-19T06:01:31.847Z,99105.78
2022-11-19T06:04:20.262Z,99117.53
2022-11-19T06:07:08.703Z,99115.50
2022-11-19T06:09:57.153Z,99122.06
2022-11-19T06:12:46.885Z,99119.28
2022-11-19T06:15:35.316Z,99115.59
2022-11-19T06:18:23.715Z,99111.06
2022-11-19T06:21:12.521Z,99105.75
2022-11-19T06:24:00.985Z,99107.38
2022-11-19T06:26:49.378Z,99109.94
2022-11-19T06:29:39.198Z,99117.56
2022-11-19T06:32:27.785Z,99113.19
2022-11-19T06:35:16.490Z,99107.00
2022-11-19T06:38:04.927Z,99115.41
2022-11-19T06:40:53.347Z,99119.50
2022-11-19T06:43:43.032Z,99115.03
2022-11-19T06:46:32.801Z,99119.19
2022-11-19T06:49:21.611Z,99121.63
2022-11-19T06:52:10.713Z,99127.38
2022-11-19T06:54:59.303Z,99128.06
2022-11-19T06:57:47.765Z,99134.69
2022-11-19T07:00:36.461Z,99135.47
2022-11-19T07:03:26.411Z,99132.88
2022-11-19T07:05:58.219Z,99126.00
2022-11-19T07:08:26.452Z,99120.03
2022-11-19T07:10:56.451Z,99125.94
2022-11-19T07:13:24.647Z,99131.47
2022-11-19T07:15:52.775Z,99130.00
2022-11-19T07:18:20.908Z,99130.00
2022-11-19T07:20:50.622Z,99136.22
2022-11-19T07:23:20.254Z,99141.03
2022-11-19T07:25:48.350Z,99139.66
2022-11-19T07:28:16.514Z,99135.34
2022-11-19T07:30:44.713Z,99141.94
2022-11-19T07:33:12.874Z,99146.13
2022-11-19T07:35:41.114Z,99147.72
2022-11-19T07:38:10.617Z,99151.97
2022-11-19T07:40:38.734Z,99146.88
2022-11-19T07:43:05.892Z,99162.56
2022-11-19T07:45:35.421Z,99162.31
2022-11-19T07:48:03.638Z,99162.75
2022-11-19T07:50:31.792Z,99172.38
2022-11-19T07:53:00.137Z,99175.28
2022-11-19T07:55:29.620Z,99171.47
2022-11-19T07:57:57.761Z,99177.78
2022-11-19T08:00:26.053Z,99181.69
2022-11-19T08:02:54.284Z,99182.94
2022-11-19T08:05:22.446Z,99181.56
2022-11-19T08:07:50.561Z,99185.38
2022-11-19T08:10:18.789Z,99194.03
2022-11-19T08:13:03.115Z,99196.94
2022-11-19T08:15:31.601Z,99185.41
2022-11-19T08:18:26.046Z,99198.75
2022-11-19T08:20:56.685Z,99196.72
2022-11-19T08:23:25.010Z,99201.97
2022-11-19T08:25:53.736Z,99198.72
2022-11-19T08:28:23.262Z,99198.00
2022-11-19T08:30:51.367Z,99200.56
2022-11-19T08:33:19.508Z,99200.63
2022-11-19T08:35:47.662Z,99201.69
2022-11-19T08:38:15.824Z,99208.47
2022-11-19T08:40:43.998Z,99206.91
2022-11-19T08:43:11.166Z,99208.66
2022-11-19T08:45:40.651Z,99213.97
2022-11-19T08:48:10.397Z,99229.56
2022-11-19T08:50:38.727Z,99216.22
2022-11-19T08:53:07.171Z,99228.16
2022-11-19T08:55:35.345Z,99222.09
2022-11-19T08:58:03.899Z,99220.44
2022-11-19T09:00:33.134Z,99222.94
2022-11-19T09:03:02.699Z,99224.53
2022-11-19T09:05:30.898Z,99233.09
2022-11-19T09:07:59.007Z,99233.19
2022-11-19T09:10:27.315Z,99234.94
2022-11-19T09:12:55.566Z,99242.88
2022-11-19T09:15:23.796Z,99243.13
2022-11-19T09:17:52.014Z,99247.34
2022-11-19T09:20:21.619Z,99256.00
2022-11-19T09:22:49.729Z,99263.06
2022-11-19T09:25:17.976Z,99267.66
2022-11-19T09:27:46.186Z,99274.69
2022-11-19T09:30:15.314Z,99268.97
2022-11-19T09:32:43.485Z,99275.94
2022-11-19T09:35:11.759Z,99287.09
2022-11-19T09:37:41.242Z,99287.31
2022-11-19T09:40:12.489Z,99289.09
2022-11-19T09:42:44.456Z,99295.22
2022-11-19T09:45:19.629Z,99294.69
2022-11-19T09:48:13.471Z,99298.31
2022-11-19T09:50:53.475Z,99295.97
2022-11-19T09:53:23.879Z,99299.59
2022-11-19T09:55:53.555Z,99306.50
2022-11-19T09:58:24.015Z,99310.19
2022-11-19T10:00:52.729Z,99307.72
2022-11-19T10:03:22.736Z,99310.34
2022-11-19T10:06:19.388Z,99307.00
2022-11-19T10:09:04.402Z,99306.38
2022-11-19T10:11:42.234Z,99299.41
2022-11-19T10:14:17.316Z,99300.81
2022-11-19T10:16:54.328Z,99292.97
2022-11-19T10:19:34.963Z,99298.81
2022-11-19T10:22:08.073Z,99291.91
2022-11-19T10:24:41.944Z,99289.31
2022-11-19T10:27:19.537Z,99290.97
2022-11-19T10:29:48.035Z,99297.66
2022-11-19T10:32:25.339Z,99299.22
2022-11-19T10:34:57.764Z,99303.25
2022-11-19T10:37:27.525Z,99303.03
2022-11-19T10:39:58.824Z,99304.59
2022-11-19T10:42:28.657Z,99297.63
2022-11-19T10:44:59.021Z,99306.16
2022-11-19T10:47:31.313Z,99302.69
2022-11-19T10:49:59.434Z,99299.31
2022-11-19T10:52:31.067Z,99295.00
2022-11-19T10:55:05.218Z,99294.22
2022-11-19T10:57:33.697Z,99296.78
2022-11-19T11:00:02.511Z,99296.78
2022-11-19T11:02:39.285Z,99295.91
2022-11-19T11:05:11.124Z,99294.97
2022-11-19T11:07:54.848Z,99305.13
2022-11-19T11:10:37.544Z,99312.91
2022-11-19T11:13:34.672Z,99297.78
2022-11-19T11:16:08.112Z,99301.38
2022-11-19T11:18:36.505Z,99317.63
2022-11-19T11:21:04.725Z,99314.13
2022-11-19T11:23:32.860Z,99310.56
2022-11-19T11:26:06.608Z,99318.19
2022-11-19T11:28:35.153Z,99311.38
2022-11-19T11:31:04.593Z,99313.16
2022-11-19T11:33:35.471Z,99306.59
2022-11-19T11:36:07.041Z,99316.38
2022-11-19T11:38:41.398Z,99308.06
2022-11-19T11:44:04.275Z,99300.59
2022-11-19T11:46:41.484Z,99302.38
2022-11-19T11:49:21.645Z,99300.72
2022-11-19T11:52:02.319Z,99300.00
2022-11-19T11:54:30.460Z,99294.00
2022-11-19T11:57:15.803Z,99287.91
2022-11-19T11:59:44.029Z,99292.19
2022-11-19T12:02:26.962Z,99304.38
2022-11-19T12:04:55.793Z,99320.69
2022-11-19T12:07:38.379Z,99309.00
2022-11-19T12:10:19.634Z,99316.84
2022-11-19T12:12:53.976Z,99312.63
2022-11-19T12:15:26.869Z,99313.38
2022-11-19T12:17:58.599Z,99309.16
2022-11-19T12:20:36.815Z,99322.09
2022-11-19T12:23:21.097Z,99327.41
2022-11-19T12:25:57.449Z,99335.19
2022-11-19T12:28:37.860Z,99341.31
2022-11-19T12:31:15.285Z,99342.31
2022-11-19T12:34:01.954Z,99337.97
2022-11-19T12:36:36.834Z,99334.31
2022-11-19T12:39:14.930Z,99339.41
2022-11-19T12:42:24.479Z,99312.88
2022-11-19T12:44:58.385Z,99329.94
2022-11-19T12:47:42.084Z,99319.84
2022-11-19T12:50:19.810Z,99331.91
2022-11-19T12:53:19.924Z,99347.22
2022-11-19T12:55:55.497Z,99342.13
2022-11-19T12:58:30.509Z,99335.28
2022-11-19T13:01:01.710Z,99330.84
2022-11-19T13:03:44.546Z,99318.81
2022-11-19T13:06:17.928Z,99319.53
2022-11-19T13:08:49.814Z,99325.19
2022-11-19T13:11:21.899Z,99309.66
2022-11-19T13:13:52.593Z,99321.44
2022-11-19T13:16:23.003Z,99322.22
2022-11-19T13:18:53.190Z,99320.66
2022-11-19T13:21:28.693Z,99319.84
2022-11-19T13:23:56.842Z,99320.69
2022-11-19T13:26:28.003Z,99317.09
2022-11-19T13:28:58.291Z,99321.91
2022-11-19T13:31:33.010Z,99323.44
2022-11-19T13:34:02.507Z,99325.06
2022-11-19T13:36:34.054Z,99325.88
2022-11-19T13:39:05.475Z,99326.78
2022-11-19T13:41:35.547Z,99331.91
2022-11-19T13:44:21.197Z,99337.13
2022-11-19T13:46:52.815Z,99331.34
2022-11-19T13:49:24.068Z,99334.91
2022-11-19T13:51:54.419Z,99334.19
2022-11-19T13:54:26.013Z,99338.34
2022-11-19T13:56:56.797Z,99338.34
2022-11-19T13:59:32.356Z,99339.03
2022-11-19T14:02:55.224Z,99338.19
2022-11-19T14:06:14.059Z,99341.00
2022-11-19T14:08:53.691Z,99338.56
2022-11-19T14:11:33.564Z,99344.72
2022-11-19T14:14:34.143Z,99347.44
2022-11-19T14:17:24.821Z,99350.16
2022-11-19T14:20:15.189Z,99357.03
2022-11-19T14:23:01.674Z,99361.47
2022-11-19T14:26:01.318Z,99358.25
2022-11-19T14:28:48.892Z,99355.78
2022-11-19T14:31:17.480Z,99355.94
2022-11-19T14:34:03.932Z,99358.44
2022-11-19T14:36:45.626Z,99364.22
2022-11-19T14:39:20.705Z,99364.28
2022-11-19T14:41:49.108Z,99363.44
2022-11-19T14:44:34.153Z,99357.63
2022-11-19T14:47:35.230Z,99362.66
2022-11-19T14:50:06.049Z,99366.16
2022-11-19T14:52:39.748Z,99371.28
2022-11-19T14:55:20.818Z,99372.84
2022-11-19T14:57:56.707Z,99370.31
2022-11-19T15:00:31.048Z,99375.41
2022-11-19T15:02:59.188Z,99380.59
2022-11-19T15:05:30.318Z,99381.53
2022-11-19T15:08:34.811Z,99382.34
2022-11-19T15:11:08.159Z,99380.59
2022-11-19T15:13:36.640Z,99377.22
2022-11-19T15:16:11.951Z,99374.00
2022-11-19T15:19:23.163Z,99376.72
2022-11-19T15:22:18.044Z,99382.66
2022-11-19T15:25:23.028Z,99382.66
2022-11-19T15:28:01.446Z,99385.22
2022-11-19T15:30:48.684Z,99384.44
2022-11-19T15:33:47.369Z,99389.66
2022-11-19T15:36:33.792Z,99382.03
2022-11-19T15:39:06.363Z,99381.22
2022-11-19T15:41:39.666Z,99378.69
2022-11-19T15:44:10.010Z,99375.41
2022-11-19T15:46:41.986Z,99381.34
2022-11-19T15:49:15.225Z,99374.38
2022-11-19T15:52:00.329Z,99373.47
2022-11-19T15:54:29.659Z,99370.97
2022-11-19T15:57:01.787Z,99382.78
2022-11-19T15:59:30.208Z,99388.69
2022-11-19T16:02:01.030Z,99391.25
2022-11-19T16:04:36.742Z,99390.50
2022-11-19T16:07:05.640Z,99386.19
2022-11-19T16:09:33.745Z,99379.44
2022-11-19T16:12:20.836Z,99382.78
2022-11-19T16:15:09.749Z,99381.19
2022-11-19T16:17:44.383Z,99380.38
2022-11-19T16:20:22.855Z,99377.84
2022-11-19T16:22:57.258Z,99382.84
2022-11-19T16:25:33.451Z,99386.16
2022-11-19T16:28:05.835Z,99383.50
2022-11-19T16:30:43.958Z,99382.66
2022-11-19T16:33:18.475Z,99398.84
2022-11-19T16:35:52.370Z,99395.59
2022-11-19T16:38:26.777Z,99404.25
2022-11-19T16:41:12.635Z,99407.75
2022-11-19T16:43:44.780Z,99409.72
2022-11-19T16:46:14.413Z,99410.50
2022-11-19T16:49:00.572Z,99416.56
2022-11-19T16:51:39.508Z,99406.47
2022-11-19T16:54:09.457Z,99413.28
2022-11-19T16:56:43.714Z,99410.09
2022-11-19T16:59:20.683Z,99414.44
2022-11-19T17:01:57.432Z,99417.78
2022-11-19T17:04:28.083Z,99425.50
2022-11-19T17:06:56.291Z,99416.03
2022-11-19T17:09:33.068Z,99412.56
2022-11-19T17:12:19.576Z,99417.69
2022-11-19T17:14:58.057Z,99421.75
2022-11-19T17:17:41.709Z,99422.44
2022-11-19T17:21:01.604Z,99424.31
2022-11-19T17:23:31.336Z,99422.63
2022-11-19T17:26:00.366Z,99425.16
2022-11-19T17:28:35.175Z,99419.91
2022-11-19T17:31:07.423Z,99418.19
2022-11-19T17:33:36.847Z,99429.06
2022-11-19T17:36:05.866Z,99427.28
2022-11-19T17:38:34.147Z,99432.38
2022-11-19T17:41:04.865Z,99445.97
2022-11-19T17:43:52.265Z,99442.50
2022-11-19T17:46:22.396Z,99442.50
2022-11-19T17:48:50.901Z,99447.69
2022-11-19T17:51:20.294Z,99446.84
2022-11-19T17:53:51.299Z,99444.50
2022-11-19T17:56:21.284Z,99451.44
2022-11-19T17:58:49.479Z,99456.69
2022-11-19T18:01:17.853Z,99449.91
2022-11-19T18:03:47.579Z,99449.97
2022-11-19T18:06:17.565Z,99450.09
2022-11-19T18:08:45.890Z,99455.28
2022-11-19T18:11:15.446Z,99454.47
2022-11-19T18:13:43.766Z,99451.09
2022-11-19T18:16:13.918Z,99451.19
2022-11-19T18:18:42.121Z,99448.72
2022-11-19T18:21:12.929Z,99454.59
2022-11-19T18:23:41.171Z,99463.06
2022-11-19T18:26:11.515Z,99455.28
2022-11-19T18:28:40.926Z,99465.50
2022-11-19T18:31:15.619Z,99468.84
2022-11-19T18:33:45.274Z,99462.88
2022-11-19T18:36:14.886Z,99468.00
2022-11-19T18:38:43.121Z,99473.19
2022-11-19T18:41:11.633Z,99469.72
2022-11-19T18:43:57.631Z,99474.69
2022-11-19T18:46:26.037Z,99478.81
2022-11-19T18:48:54.549Z,99471.09
2022-11-19T18:51:31.130Z,99474.44
2022-11-19T18:53:59.389Z,99480.50
2022-11-19T18:56:27.647Z,99478.13
2022-11-19T18:58:58.109Z,99479.19
2022-11-19T19:01:30.663Z,99472.50
2022-11-19T19:03:58.893Z,99471.69
2022-11-19T19:06:28.438Z,99481.22
2022-11-19T19:08:56.578Z,99480.44
2022-11-19T19:11:42.481Z,99481.41
2022-11-19T19:14:10.670Z,99490.06
2022-11-19T19:16:38.900Z,99491.91
2022-11-19T19:19:07.030Z,99496.25
2022-11-19T19:21:36.894Z,99500.72
2022-11-19T19:24:06.179Z,99500.91
2022-11-19T19:26:34.512Z,99498.50
2022-11-19T19:29:02.809Z,99496.91
2022-11-19T19:31:30.974Z,99505.56
2022-11-19T19:33:59.170Z,99507.28
2022-11-19T19:36:27.440Z,99503.16
2022-11-19T19:38:56.911Z,99502.47
2022-11-19T19:41:26.290Z,99499.09
2022-11-19T19:43:54.740Z,99499.06
2022-11-19T19:46:24.008Z,99494.72
2022-11-19T19:48:53.734Z,99499.75
2022-11-19T19:51:23.194Z,99505.81
2022-11-19T19:53:53.171Z,99511.97
2022-11-19T19:56:23.935Z,99510.28
2022-11-19T19:58:52.249Z,99513.84
2022-11-19T20:01:21.667Z,99507.16
2022-11-19T20:03:54.255Z,99520.94
2022-11-19T20:06:24.210Z,99514.22
2022-11-19T20:08:52.478Z,99514.91
2022-11-19T20:11:24.549Z,99516.53
2022-11-19T20:13:52.929Z,99512.38
2022-11-19T20:16:22.290Z,99520.94
2022-11-19T20:18:51.553Z,99514.09
2022-11-19T20:21:20.905Z,99520.84
2022-11-19T20:23:49.033Z,99518.16
2022-11-19T20:26:18.786Z,99516.38
2022-11-19T20:28:48.500Z,99516.13
2022-11-19T20:31:17.932Z,99525.31
2022-11-19T20:33:46.832Z,99521.72
2022-11-19T20:36:17.615Z,99524.22
2022-11-19T20:38:46.197Z,99537.78
2022-11-19T20:41:29.608Z,99526.75
2022-11-19T20:44:17.251Z,99527.56
2022-11-19T20:46:45.506Z,99521.84
2022-11-19T20:49:17.215Z,99528.81
2022-11-19T20:51:46.046Z,99533.00
2022-11-19T20:54:14.362Z,99530.31
2022-11-19T20:56:42.555Z,99531.28
2022-11-19T20:59:12.514Z,99530.66
2022-11-19T21:01:40.738Z,99537.44
2022-11-19T21:04:31.299Z,99539.25
2022-11-19T21:07:19.841Z,99534.19
2022-11-19T21:10:09.369Z,99537.53
2022-11-19T21:13:03.872Z,99525.47
2022-11-19T21:15:53.901Z,99540.66
2022-11-19T21:18:42.652Z,99537.31
2022-11-19T21:21:31.036Z,99533.06
2022-11-19T21:24:19.688Z,99532.25
2022-11-19T21:27:08.164Z,99536.63
2022-11-19T21:29:56.551Z,99536.81
2022-11-19T21:32:46.338Z,99537.66
2022-11-19T21:35:34.954Z,99535.94
2022-11-19T21:38:23.748Z,99535.94
2022-11-19T21:41:12.113Z,99533.34
2022-11-19T21:44:00.598Z,99536.72
2022-11-19T21:46:48.981Z,99537.69
2022-11-19T21:49:38.719Z,99532.56
2022-11-19T21:52:27.151Z,99539.44
2022-11-19T21:55:15.646Z,99535.25
2022-11-19T21:58:04.406Z,99539.53
2022-11-19T22:00:57.694Z,99531.75
2022-11-19T22:03:46.191Z,99529.91
2022-11-19T22:06:35.933Z,99537.44
2022-11-19T22:09:24.317Z,99533.22
2022-11-19T22:12:12.705Z,99532.41
2022-11-19T22:15:01.135Z,99530.72
2022-11-19T22:17:49.718Z,99535.78
2022-11-19T22:20:38.125Z,99526.34
2022-11-19T22:23:27.851Z,99528.81
2022-11-19T22:26:16.534Z,99525.47
2022-11-19T22:29:04.947Z,99523.81
2022-11-19T22:31:53.310Z,99512.72
2022-11-19T22:34:41.883Z,99515.34
2022-11-19T22:37:30.318Z,99513.59
2022-11-19T22:40:20.153Z,99525.56
2022-11-19T22:43:08.584Z,99520.59
2022-11-19T22:45:56.967Z,99524.09
2022-11-19T22:48:45.433Z,99517.28
2022-11-19T22:51:33.825Z,99524.06
2022-11-19T22:54:22.222Z,99524.91
2022-11-19T22:57:11.979Z,99524.91
2022-11-19T23:00:00.367Z,99527.63
2022-11-19T23:02:48.782Z,99524.38
2022-11-19T23:05:37.420Z,99524.34
2022-11-19T23:08:25.887Z,99520.75
2022-11-19T23:11:41.126Z,99523.38
2022-11-19T23:14:30.143Z,99525.03
2022-11-19T23:17:18.720Z,99520.59
2022-11-19T23:20:08.794Z,99522.22
2022-11-19T23:22:57.235Z,99517.19
2022-11-19T23:25:45.593Z,99515.59
2022-11-19T23:28:34.929Z,99514.84
2022-11-19T23:31:25.863Z,99513.28
2022-11-19T23:34:14.242Z,99514.94
2022-11-19T23:37:02.776Z,99506.34
2022-11-19T23:39:51.202Z,99507.91
2022-11-19T23:42:39.620Z,99504.44
2022-11-19T23:45:27.970Z,99507.78
2022-11-19T23:48:17.835Z,99506.97
2022-11-19T23:51:08.259Z,99508.63
2022-11-19T23:53:57.025Z,99517.09
2022-11-19T23:56:45.443Z,99517.19
2022-11-19T23:59:33.829Z,99505.38
